createdAt,value
2018-09-25T00:02:11.494Z,7.10
2018-09-25T00:04:45.327Z,7.00
2018-09-25T00:07:19.356Z,7.00
2018-09-25T00:09:54.260Z,6.90
2018-09-25T00:12:28.091Z,6.90
2018-09-25T00:15:01.811Z,6.80
2018-09-25T00:17:35.529Z,6.80
2018-09-25T00:20:09.345Z,6.80
2018-09-25T00:22:43.354Z,6.80
2018-09-25T00:25:17.214Z,6.70
2018-09-25T00:27:51.185Z,6.70
2018-09-25T00:30:24.906Z,6.70
2018-09-25T00:32:58.665Z,6.70
2018-09-25T00:35:32.417Z,6.80
2018-09-25T00:38:06.248Z,6.80
2018-09-25T00:40:40.282Z,6.80
2018-09-25T00:43:14.071Z,6.70
2018-09-25T00:45:47.832Z,6.70
2018-09-25T00:48:21.641Z,6.70
2018-09-25T00:50:55.621Z,6.70
2018-09-25T00:53:29.571Z,6.60
2018-09-25T00:56:03.506Z,6.60
2018-09-25T00:58:37.273Z,6.60
2018-09-25T01:01:11.125Z,6.60
2018-09-25T01:03:45.043Z,6.50
2018-09-25T01:06:18.743Z,6.50
2018-09-25T01:08:52.617Z,6.40
2018-09-25T01:11:26.537Z,6.40
2018-09-25T01:14:00.584Z,6.40
2018-09-25T01:16:34.551Z,6.30
2018-09-25T01:19:08.599Z,6.30
2018-09-25T01:21:42.343Z,6.30
2018-09-25T01:24:16.039Z,6.20
2018-09-25T01:26:49.882Z,6.20
2018-09-25T01:29:30.477Z,6.20
2018-09-25T01:32:04.293Z,6.10
2018-09-25T01:34:38.766Z,6.10
2018-09-25T01:37:12.662Z,6.10
2018-09-25T01:39:46.493Z,6.10
2018-09-25T01:42:20.402Z,6.10
2018-09-25T01:44:54.170Z,6.10
2018-09-25T01:47:28.009Z,6.20
2018-09-25T01:50:01.845Z,6.10
2018-09-25T01:52:35.843Z,6.00
2018-09-25T01:55:09.714Z,6.10
2018-09-25T01:57:43.705Z,6.10
2018-09-25T02:00:17.561Z,6.10
2018-09-25T02:02:51.593Z,6.10
2018-09-25T02:05:25.467Z,6.00
2018-09-25T02:07:59.251Z,6.00
2018-09-25T02:10:32.991Z,6.10
2018-09-25T02:13:06.748Z,6.00
2018-09-25T02:15:40.563Z,6.00
2018-09-25T02:18:14.545Z,6.00
2018-09-25T02:20:48.397Z,6.10
2018-09-25T02:23:22.427Z,6.10
2018-09-25T02:25:56.198Z,6.00
2018-09-25T02:28:30.123Z,6.00
2018-09-25T02:31:03.997Z,6.00
2018-09-25T02:33:37.994Z,6.00
2018-09-25T02:36:11.770Z,6.00
2018-09-25T02:38:45.677Z,5.90
2018-09-25T02:41:19.742Z,5.80
2018-09-25T02:43:53.474Z,5.80
2018-09-25T02:46:27.371Z,5.80
2018-09-25T02:49:01.225Z,5.80
2018-09-25T02:51:35.063Z,5.80
2018-09-25T02:54:08.674Z,5.90
2018-09-25T02:56:42.479Z,5.80
2018-09-25T02:59:16.274Z,5.70
2018-09-25T03:01:50.059Z,5.60
2018-09-25T03:04:23.991Z,5.50
2018-09-25T03:06:57.656Z,5.50
2018-09-25T03:09:31.524Z,5.50
2018-09-25T03:12:05.396Z,5.50
2018-09-25T03:14:39.178Z,5.50
2018-09-25T03:17:13.065Z,5.50
2018-09-25T03:19:46.934Z,5.50
2018-09-25T03:22:20.802Z,5.40
2018-09-25T03:24:55.358Z,5.40
2018-09-25T03:27:29.397Z,5.40
2018-09-25T03:30:03.320Z,5.40
2018-09-25T03:32:37.030Z,5.30
2018-09-25T03:35:11.406Z,5.30
2018-09-25T03:37:45.306Z,5.20
2018-09-25T03:40:19.189Z,5.20
2018-09-25T03:42:53.074Z,5.20
2018-09-25T03:45:26.782Z,5.20
2018-09-25T03:48:00.703Z,5.20
2018-09-25T03:50:34.442Z,5.10
2018-09-25T03:53:08.261Z,5.10
2018-09-25T03:55:42.066Z,5.00
2018-09-25T03:58:16.012Z,5.00
2018-09-25T04:00:49.932Z,5.00
2018-09-25T04:03:23.902Z,4.90
2018-09-25T04:05:57.858Z,4.90
2018-09-25T04:08:31.596Z,4.90
2018-09-25T04:11:05.402Z,4.90
2018-09-25T04:13:39.760Z,4.80
2018-09-25T04:16:13.914Z,4.80
2018-09-25T04:18:47.703Z,4.80
2018-09-25T04:21:21.471Z,4.70
2018-09-25T04:23:55.256Z,4.80
2018-09-25T04:26:29.023Z,4.70
2018-09-25T04:29:03.720Z,4.70
2018-09-25T04:31:37.656Z,4.70
2018-09-25T04:34:11.664Z,4.70
2018-09-25T04:36:45.617Z,4.60
2018-09-25T04:39:19.670Z,4.60
2018-09-25T04:41:53.579Z,4.60
2018-09-25T04:44:27.302Z,4.50
2018-09-25T04:47:01.280Z,4.60
2018-09-25T04:49:35.154Z,4.60
2018-09-25T04:52:09.014Z,4.60
2018-09-25T04:54:42.792Z,4.60
2018-09-25T04:57:16.691Z,4.60
2018-09-25T04:59:50.361Z,4.60
2018-09-25T05:02:24.092Z,4.60
2018-09-25T05:04:57.804Z,4.60
2018-09-25T05:07:31.811Z,4.60
2018-09-25T05:10:05.614Z,4.50
2018-09-25T05:12:39.543Z,4.50
2018-09-25T05:15:13.450Z,4.60
2018-09-25T05:17:47.267Z,4.60
2018-09-25T05:20:21.038Z,4.60
2018-09-25T05:22:54.809Z,4.70
2018-09-25T05:25:28.572Z,4.70
2018-09-25T05:28:02.417Z,4.80
2018-09-25T05:30:36.174Z,5.00
2018-09-25T05:33:10.092Z,5.20
2018-09-25T05:35:43.992Z,5.30
2018-09-25T05:38:17.946Z,5.30
2018-09-25T05:40:51.680Z,5.50
2018-09-25T05:43:25.571Z,5.60
2018-09-25T05:45:59.304Z,5.80
2018-09-25T05:48:33.119Z,6.10
2018-09-25T05:51:06.926Z,6.30
2018-09-25T05:53:40.824Z,6.60
2018-09-25T05:56:14.545Z,7.30
2018-09-25T05:58:48.304Z,7.70
2018-09-25T06:01:22.202Z,8.20
2018-09-25T06:03:55.881Z,8.60
2018-09-25T06:06:29.933Z,8.90
2018-09-25T06:09:03.733Z,9.10
2018-09-25T06:11:37.873Z,9.30
2018-09-25T06:14:11.716Z,9.80
2018-09-25T06:16:45.604Z,10.20
2018-09-25T06:19:19.573Z,10.70
2018-09-25T06:21:53.366Z,10.60
2018-09-25T06:24:27.230Z,11.10
2018-09-25T06:27:01.052Z,11.90
2018-09-25T06:29:35.045Z,11.90
2018-09-25T06:32:09.110Z,12.10
2018-09-25T06:34:42.899Z,12.20
2018-09-25T06:37:16.919Z,12.00
2018-09-25T06:39:50.875Z,11.60
2018-09-25T06:42:24.795Z,11.70
2018-09-25T06:44:59.494Z,12.10
2018-09-25T06:47:33.289Z,12.20
2018-09-25T06:50:07.063Z,12.30
2018-09-25T06:52:41.134Z,12.40
2018-09-25T06:55:15.061Z,12.90
2018-09-25T06:57:49.608Z,13.60
2018-09-25T07:00:23.641Z,13.10
2018-09-25T07:02:57.686Z,13.60
2018-09-25T07:05:31.649Z,13.90
2018-09-25T07:08:07.253Z,14.70
2018-09-25T07:10:41.327Z,15.70
2018-09-25T07:13:15.267Z,16.20
2018-09-25T07:15:49.081Z,15.20
2018-09-25T07:18:23.193Z,14.60
2018-09-25T07:20:57.451Z,15.20
2018-09-25T07:23:31.588Z,15.90
2018-09-25T07:26:05.295Z,15.10
2018-09-25T07:28:39.303Z,14.00
2018-09-25T07:31:13.279Z,13.00
2018-09-25T07:33:47.009Z,13.20
2018-09-25T07:36:20.961Z,13.50
2018-09-25T07:38:54.951Z,13.90
2018-09-25T07:41:28.985Z,15.00
2018-09-25T07:44:02.617Z,14.60
2018-09-25T07:46:36.802Z,14.90
2018-09-25T07:49:11.190Z,14.50
2018-09-25T07:51:45.123Z,15.00
2018-09-25T07:54:19.070Z,15.50
2018-09-25T07:56:52.987Z,14.80
2018-09-25T07:59:27.028Z,15.00
2018-09-25T08:02:01.266Z,16.20
2018-09-25T08:04:38.007Z,16.90
2018-09-25T08:07:12.326Z,16.60
2018-09-25T08:09:46.244Z,17.50
2018-09-25T08:12:20.018Z,18.50
2018-09-25T08:14:53.999Z,18.50
2018-09-25T08:17:27.835Z,19.30
2018-09-25T08:20:01.657Z,19.20
2018-09-25T08:22:35.733Z,19.40
2018-09-25T08:25:09.666Z,18.90
2018-09-25T08:27:43.739Z,19.50
2018-09-25T08:30:17.736Z,18.90
2018-09-25T08:32:51.717Z,17.80
2018-09-25T08:35:25.584Z,17.80
2018-09-25T08:37:59.536Z,18.80
2018-09-25T08:40:33.334Z,19.50
2018-09-25T08:43:07.563Z,17.40
2018-09-25T08:45:41.599Z,18.00
2018-09-25T08:48:17.623Z,17.60
2018-09-25T08:50:51.453Z,17.10
2018-09-25T08:53:25.373Z,17.50
2018-09-25T08:55:59.366Z,18.20
2018-09-25T08:58:33.459Z,19.10
2018-09-25T09:01:07.416Z,19.00
2018-09-25T09:03:41.621Z,18.40
2018-09-25T09:06:15.525Z,17.80
2018-09-25T09:08:49.570Z,16.30
2018-09-25T09:11:23.432Z,16.10
2018-09-25T09:13:57.402Z,16.00
2018-09-25T09:16:31.316Z,16.00
2018-09-25T09:19:05.215Z,15.90
2018-09-25T09:21:39.091Z,15.40
2018-09-25T09:24:13.235Z,14.80
2018-09-25T09:26:47.012Z,14.10
2018-09-25T09:29:21.858Z,13.80
2018-09-25T09:31:56.537Z,14.80
2018-09-25T09:34:30.381Z,15.40
2018-09-25T09:37:04.301Z,17.10
2018-09-25T09:39:38.433Z,17.70
2018-09-25T09:42:12.375Z,17.10
2018-09-25T09:44:46.335Z,15.90
2018-09-25T09:47:20.556Z,15.10
2018-09-25T09:49:54.397Z,14.70
2018-09-25T09:52:28.314Z,14.10
2018-09-25T09:55:02.282Z,13.60
2018-09-25T09:57:36.362Z,14.10
2018-09-25T10:00:10.276Z,14.90
2018-09-25T10:02:44.144Z,15.60
2018-09-25T10:05:18.054Z,15.90
2018-09-25T10:07:51.872Z,16.80
2018-09-25T10:10:25.756Z,15.80
2018-09-25T10:12:59.722Z,16.60
2018-09-25T10:15:33.728Z,18.70
2018-09-25T10:18:07.537Z,19.50
2018-09-25T10:20:41.250Z,21.00
2018-09-25T10:23:15.196Z,21.00
2018-09-25T10:25:49.216Z,21.10
2018-09-25T10:28:23.221Z,19.50
2018-09-25T10:30:57.121Z,19.10
2018-09-25T10:33:31.236Z,18.90
2018-09-25T10:36:05.119Z,19.60
2018-09-25T10:38:39.034Z,19.70
2018-09-25T10:41:12.861Z,20.20
2018-09-25T10:43:46.526Z,21.10
2018-09-25T10:46:20.579Z,22.00
2018-09-25T10:48:54.234Z,21.50
2018-09-25T10:51:30.344Z,21.90
2018-09-25T10:54:04.270Z,19.80
2018-09-25T10:56:38.262Z,20.20
2018-09-25T10:59:12.158Z,20.70
2018-09-25T11:01:46.124Z,18.90
2018-09-25T11:04:20.276Z,20.40
2018-09-25T11:06:53.997Z,20.00
2018-09-25T11:09:28.135Z,19.60
2018-09-25T11:12:02.023Z,19.20
2018-09-25T11:14:35.963Z,18.30
2018-09-25T11:17:10.212Z,16.90
2018-09-25T11:19:44.211Z,16.10
2018-09-25T11:22:18.119Z,16.00
2018-09-25T11:24:52.641Z,17.00
2018-09-25T11:27:26.376Z,18.10
2018-09-25T11:30:00.207Z,16.20
2018-09-25T11:32:34.054Z,16.20
2018-09-25T11:35:07.892Z,18.70
2018-09-25T11:37:41.925Z,20.30
2018-09-25T11:40:16.627Z,21.70
2018-09-25T11:42:50.583Z,22.30
2018-09-25T11:45:25.325Z,23.50
2018-09-25T11:47:59.354Z,22.90
2018-09-25T11:50:33.209Z,22.60
2018-09-25T11:53:07.337Z,22.00
2018-09-25T11:55:41.275Z,22.60
2018-09-25T11:58:16.256Z,19.70
2018-09-25T12:00:50.384Z,21.00
2018-09-25T12:03:24.242Z,22.80
2018-09-25T12:05:58.241Z,22.90
2018-09-25T12:08:32.058Z,20.70
2018-09-25T12:11:05.933Z,19.20
2018-09-25T12:13:40.043Z,18.20
2018-09-25T12:16:14.297Z,17.50
2018-09-25T12:18:48.268Z,17.00
2018-09-25T12:21:22.815Z,16.90
2018-09-25T12:23:57.147Z,18.90
2018-09-25T12:26:31.134Z,20.30
2018-09-25T12:29:05.019Z,19.80
2018-09-25T12:31:39.101Z,21.00
2018-09-25T12:34:12.837Z,22.20
2018-09-25T12:36:46.978Z,23.00
2018-09-25T12:39:21.059Z,23.60
2018-09-25T12:41:55.008Z,22.80
2018-09-25T12:44:29.022Z,22.60
2018-09-25T12:47:02.930Z,20.00
2018-09-25T12:49:36.872Z,17.90
2018-09-25T12:52:10.656Z,16.70
2018-09-25T12:54:44.705Z,15.60
2018-09-25T12:57:18.663Z,15.20
2018-09-25T12:59:52.565Z,15.30
2018-09-25T13:02:26.506Z,15.30
2018-09-25T13:05:03.931Z,15.00
2018-09-25T13:07:37.847Z,15.10
2018-09-25T13:10:11.829Z,14.90
2018-09-25T13:12:46.166Z,14.70
2018-09-25T13:15:20.285Z,14.70
2018-09-25T13:17:54.333Z,14.40
2018-09-25T13:20:28.656Z,14.40
2018-09-25T13:23:02.740Z,14.20
2018-09-25T13:25:36.581Z,13.90
2018-09-25T13:28:10.383Z,14.00
2018-09-25T13:30:44.159Z,13.80
2018-09-25T13:33:18.106Z,13.60
2018-09-25T13:35:51.927Z,13.40
2018-09-25T13:38:25.970Z,13.30
2018-09-25T13:40:59.937Z,13.50
2018-09-25T13:43:33.933Z,13.60
2018-09-25T13:46:07.846Z,13.90
2018-09-25T13:48:41.706Z,13.50
2018-09-25T13:51:15.688Z,13.50
2018-09-25T13:53:49.579Z,13.30
2018-09-25T13:56:23.485Z,13.10
2018-09-25T13:58:57.426Z,12.90
2018-09-25T14:01:31.203Z,12.60
2018-09-25T14:04:05.103Z,12.40
2018-09-25T14:06:39.003Z,12.40
2018-09-25T14:09:14.764Z,12.50
2018-09-25T14:11:49.013Z,12.60
2018-09-25T14:14:22.845Z,12.70
2018-09-25T14:16:56.809Z,12.70
2018-09-25T14:19:30.968Z,12.90
2018-09-25T14:22:04.945Z,13.10
2018-09-25T14:24:38.893Z,13.10
2018-09-25T14:27:12.975Z,13.30
2018-09-25T14:29:46.858Z,13.10
2018-09-25T14:32:20.745Z,13.20
2018-09-25T14:34:54.578Z,13.20
2018-09-25T14:37:28.777Z,13.00
2018-09-25T14:40:02.689Z,13.10
2018-09-25T14:42:36.762Z,13.20
2018-09-25T14:45:10.778Z,13.30
2018-09-25T14:47:44.680Z,13.20
2018-09-25T14:50:18.571Z,12.80
2018-09-25T14:52:52.397Z,13.00
2018-09-25T14:55:26.247Z,13.90
2018-09-25T14:58:00.033Z,14.10
2018-09-25T15:00:34.019Z,13.80
2018-09-25T15:03:07.984Z,13.30
2018-09-25T15:05:41.959Z,12.90
2018-09-25T15:08:15.718Z,12.60
2018-09-25T15:10:49.751Z,12.30
2018-09-25T15:13:23.699Z,12.20
2018-09-25T15:15:57.681Z,12.20
2018-09-25T15:18:31.681Z,12.20
2018-09-25T15:21:05.772Z,12.30
2018-09-25T15:23:39.655Z,12.10
2018-09-25T15:26:13.744Z,12.20
2018-09-25T15:28:47.572Z,12.10
2018-09-25T15:31:21.761Z,12.30
2018-09-25T15:33:55.578Z,12.50
2018-09-25T15:36:29.521Z,12.70
2018-09-25T15:39:03.292Z,13.10
2018-09-25T15:41:37.385Z,13.70
2018-09-25T15:44:11.452Z,13.50
2018-09-25T15:46:45.286Z,13.20
2018-09-25T15:49:19.251Z,12.90
2018-09-25T15:51:53.149Z,12.80
2018-09-25T15:54:26.979Z,12.60
2018-09-25T15:57:00.845Z,13.00
2018-09-25T15:59:35.788Z,13.20
2018-09-25T16:02:09.511Z,13.30
2018-09-25T16:04:43.485Z,13.20
2018-09-25T16:07:17.597Z,12.90
2018-09-25T16:09:51.530Z,12.90
2018-09-25T16:12:25.543Z,13.00
2018-09-25T16:14:59.410Z,13.00
2018-09-25T16:17:33.465Z,12.90
2018-09-25T16:20:07.419Z,12.70
2018-09-25T16:22:41.431Z,12.50
2018-09-25T16:25:15.379Z,12.50
2018-09-25T16:27:49.355Z,12.70
2018-09-25T16:30:23.208Z,12.70
2018-09-25T16:32:57.112Z,12.80
2018-09-25T16:35:31.299Z,12.70
2018-09-25T16:38:05.499Z,12.40
2018-09-25T16:40:39.190Z,12.30
2018-09-25T16:43:13.053Z,12.00
2018-09-25T16:45:46.857Z,11.80
2018-09-25T16:48:20.978Z,11.60
2018-09-25T16:50:54.856Z,11.50
2018-09-25T16:53:28.731Z,11.40
2018-09-25T16:56:02.707Z,11.20
2018-09-25T16:58:36.693Z,11.10
2018-09-25T17:01:10.561Z,11.00
2018-09-25T17:03:44.348Z,10.90
2018-09-25T17:06:18.366Z,10.90
2018-09-25T17:08:52.267Z,10.70
2018-09-25T17:11:26.232Z,10.70
2018-09-25T17:14:00.185Z,10.60
2018-09-25T17:16:34.136Z,10.50
2018-09-25T17:19:08.571Z,10.40
2018-09-25T17:21:42.483Z,10.30
2018-09-25T17:24:16.911Z,10.20
2018-09-25T17:26:50.898Z,10.10
2018-09-25T17:29:24.953Z,10.10
2018-09-25T17:31:58.980Z,10.00
2018-09-25T17:34:33.438Z,9.90
2018-09-25T17:37:07.748Z,9.90
2018-09-25T17:39:42.191Z,9.80
2018-09-25T17:42:16.127Z,9.70
2018-09-25T17:44:50.385Z,9.60
2018-09-25T17:47:24.411Z,9.60
2018-09-25T17:49:58.419Z,9.50
2018-09-25T17:52:32.417Z,9.40
2018-09-25T17:55:06.506Z,9.40
2018-09-25T17:57:40.239Z,9.30
2018-09-25T18:00:14.293Z,9.20
2018-09-25T18:02:48.144Z,9.20
2018-09-25T18:05:21.969Z,9.20
2018-09-25T18:07:55.851Z,9.20
2018-09-25T18:10:29.781Z,9.10
2018-09-25T18:13:03.852Z,9.00
2018-09-25T18:15:37.687Z,8.90
2018-09-25T18:18:11.775Z,8.90
2018-09-25T18:20:45.882Z,8.80
2018-09-25T18:23:20.066Z,8.80
2018-09-25T18:25:54.714Z,8.70
2018-09-25T18:28:28.945Z,8.60
2018-09-25T18:31:03.146Z,8.60
2018-09-25T18:33:37.480Z,8.50
2018-09-25T18:36:11.751Z,8.50
2018-09-25T18:38:45.961Z,8.50
2018-09-25T18:41:20.055Z,8.30
2018-09-25T18:43:53.941Z,8.20
2018-09-25T18:46:28.088Z,8.20
2018-09-25T18:49:02.118Z,8.10
2018-09-25T18:51:36.319Z,8.10
2018-09-25T18:54:10.901Z,8.10
2018-09-25T18:56:44.960Z,8.00
2018-09-25T18:59:19.152Z,8.00
2018-09-25T19:01:53.360Z,8.00
2018-09-25T19:04:27.944Z,8.00
2018-09-25T19:07:02.981Z,7.90
2018-09-25T19:09:37.341Z,7.90
2018-09-25T19:12:11.545Z,7.90
2018-09-25T19:14:45.524Z,7.80
2018-09-25T19:17:19.676Z,7.80
2018-09-25T19:19:53.481Z,7.70
2018-09-25T19:22:27.498Z,7.60
2018-09-25T19:25:01.769Z,7.60
2018-09-25T19:27:35.924Z,7.50
2018-09-25T19:30:11.697Z,7.50
2018-09-25T19:32:52.263Z,7.40
2018-09-25T19:35:26.281Z,7.40
2018-09-25T19:40:39.819Z,7.30
2018-09-25T19:43:13.713Z,7.30
2018-09-25T19:45:47.701Z,7.30
2018-09-25T19:48:21.697Z,7.50
2018-09-25T19:50:55.576Z,7.40
2018-09-25T19:53:29.646Z,7.30
2018-09-25T19:56:03.533Z,7.30
2018-09-25T19:58:37.396Z,7.20
2018-09-25T20:01:11.274Z,7.10
2018-09-25T20:03:45.253Z,7.10
2018-09-25T20:06:19.153Z,7.10
2018-09-25T20:08:53.053Z,7.10
2018-09-25T20:11:27.032Z,7.10
2018-09-25T20:14:01.023Z,7.10
2018-09-25T20:16:35.091Z,7.00
2018-09-25T20:19:09.072Z,6.90
2018-09-25T20:21:49.545Z,6.70
2018-09-25T20:24:23.473Z,6.60
2018-09-25T20:26:57.290Z,6.60
2018-09-25T20:29:31.466Z,6.50
2018-09-25T20:32:05.484Z,6.40
2018-09-25T20:34:39.454Z,6.40
2018-09-25T20:37:13.257Z,6.30
2018-09-25T20:39:47.179Z,6.30
2018-09-25T20:42:21.169Z,6.30
2018-09-25T20:44:55.020Z,6.30
2018-09-25T20:47:28.922Z,6.30
2018-09-25T20:50:02.856Z,6.20
2018-09-25T20:52:36.640Z,6.10
2018-09-25T20:55:10.665Z,6.10
2018-09-25T20:57:44.556Z,6.20
2018-09-25T21:00:18.371Z,6.20
2018-09-25T21:02:52.106Z,6.20
2018-09-25T21:05:26.021Z,6.10
2018-09-25T21:08:00.051Z,6.00
2018-09-25T21:10:33.944Z,6.00
2018-09-25T21:13:07.830Z,6.10
2018-09-25T21:15:41.677Z,6.00
2018-09-25T21:18:15.650Z,5.90
2018-09-25T21:20:49.541Z,5.80
2018-09-25T21:23:23.434Z,5.80
2018-09-25T21:25:57.403Z,5.90
2018-09-25T21:28:31.344Z,5.80
2018-09-25T21:31:05.094Z,5.70
2018-09-25T21:33:39.093Z,5.60
2018-09-25T21:36:13.100Z,5.60
2018-09-25T21:38:47.195Z,5.50
2018-09-25T21:41:21.081Z,5.50
2018-09-25T21:43:54.858Z,5.50
2018-09-25T21:46:28.667Z,5.40
2018-09-25T21:49:02.301Z,5.30
2018-09-25T21:51:36.336Z,5.30
2018-09-25T21:54:10.378Z,5.30
2018-09-25T21:56:44.426Z,5.30
2018-09-25T21:59:18.401Z,5.40
2018-09-25T22:01:52.422Z,5.40
2018-09-25T22:04:26.239Z,5.30
2018-09-25T22:07:00.008Z,5.20
2018-09-25T22:09:33.898Z,5.20
2018-09-25T22:12:07.745Z,5.20
2018-09-25T22:14:42.299Z,5.20
2018-09-25T22:17:16.202Z,5.10
2018-09-25T22:19:50.128Z,5.10
2018-09-25T22:22:23.995Z,5.00
2018-09-25T22:24:57.932Z,5.00
2018-09-25T22:27:31.834Z,5.20
2018-09-25T22:30:05.666Z,5.20
2018-09-25T22:32:39.286Z,5.10
2018-09-25T22:35:13.056Z,5.10
2018-09-25T22:37:46.808Z,5.00
2018-09-25T22:40:20.660Z,4.90
2018-09-25T22:42:54.478Z,4.90
2018-09-25T22:45:28.369Z,4.90
2018-09-25T22:48:02.283Z,4.80
2018-09-25T22:50:36.219Z,4.70
2018-09-25T22:53:09.934Z,4.90
2018-09-25T22:55:43.659Z,4.90
2018-09-25T22:58:17.352Z,4.80
2018-09-25T23:00:51.175Z,4.70
2018-09-25T23:03:25.181Z,4.70
2018-09-25T23:06:05.718Z,4.60
2018-09-25T23:08:39.694Z,4.70
2018-09-25T23:11:13.494Z,4.60
2018-09-25T23:13:47.482Z,4.50
2018-09-25T23:16:21.616Z,4.40
2018-09-25T23:18:55.588Z,4.50
2018-09-25T23:21:29.503Z,4.40
2018-09-25T23:24:03.452Z,4.40
2018-09-25T23:26:37.340Z,4.40
2018-09-25T23:29:11.019Z,4.40
2018-09-25T23:31:44.984Z,4.30
2018-09-25T23:34:18.904Z,4.30
2018-09-25T23:36:52.848Z,4.30
2018-09-25T23:39:28.672Z,4.20
2018-09-25T23:42:04.467Z,4.10
2018-09-25T23:44:52.140Z,4.10
2018-09-25T23:47:26.699Z,4.00
2018-09-25T23:50:04.430Z,4.00
2018-09-25T23:52:39.705Z,4.00
2018-09-25T23:55:13.452Z,3.80
2018-09-25T23:57:59.291Z,3.80
